sensor_id;sensor_type;location;lat;lon;timestamp;temperature;humidity
49821;DHT22;36893;52.520;13.450;2022-12-18T00:00:42;18.00;75.10
49821;DHT22;36893;52.520;13.450;2022-12-18T00:10:43;17.90;75.00
49821;DHT22;36893;52.520;13.450;2022-12-18T00:20:44;17.90;75.00
49821;DHT22;36893;52.520;13.450;2022-12-18T00:30:44;17.80;74.90
49821;DHT22;36893;52.520;13.450;2022-12-18T00:40:45;17.80;74.90
49821;DHT22;36893;52.520;13.450;2022-12-18T00:50:48;17.70;74.80
49821;DHT22;36893;52.520;13.450;2022-12-18T01:00:49;17.70;74.80
49821;DHT22;36893;52.520;13.450;2022-12-18T01:10:50;17.70;74.80
49821;DHT22;36893;52.520;13.450;2022-12-18T01:20:50;17.60;74.70
49821;DHT22;36893;52.520;13.450;2022-12-18T01:30:51;17.60;74.70
49821;DHT22;36893;52.520;13.450;2022-12-18T01:40:57;17.60;74.70
49821;DHT22;36893;52.520;13.450;2022-12-18T01:50:59;17.60;74.50
49821;DHT22;36893;52.520;13.450;2022-12-18T02:01:01;17.60;74.50
49821;DHT22;36893;52.520;13.450;2022-12-18T02:11:21;17.60;74.40
49821;DHT22;36893;52.520;13.450;2022-12-18T02:22:02;17.50;74.40
49821;DHT22;36893;52.520;13.450;2022-12-18T02:32:15;17.50;74.40
49821;DHT22;36893;52.520;13.450;2022-12-18T02:42:18;17.50;74.40
49821;DHT22;36893;52.520;13.450;2022-12-18T02:52:24;17.50;74.30
49821;DHT22;36893;52.520;13.450;2022-12-18T03:02:51;17.50;74.30
49821;DHT22;36893;52.520;13.450;2022-12-18T03:13:13;17.50;74.30
49821;DHT22;36893;52.520;13.450;2022-12-18T03:23:21;17.40;74.20
49821;DHT22;36893;52.520;13.450;2022-12-18T03:33:31;17.60;74.00
49821;DHT22;36893;52.520;13.450;2022-12-18T03:43:40;17.60;74.00
49821;DHT22;36893;52.520;13.450;2022-12-18T03:53:59;17.50;73.90
49821;DHT22;36893;52.520;13.450;2022-12-18T04:04:03;17.40;73.90
49821;DHT22;36893;52.520;13.450;2022-12-18T04:14:04;17.40;73.80
49821;DHT22;36893;52.520;13.450;2022-12-18T04:24:05;17.40;73.90
49821;DHT22;36893;52.520;13.450;2022-12-18T04:34:06;17.30;73.80
49821;DHT22;36893;52.520;13.450;2022-12-18T04:44:07;17.30;73.80
49821;DHT22;36893;52.520;13.450;2022-12-18T04:54:07;17.30;73.70
49821;DHT22;36893;52.520;13.450;2022-12-18T05:04:08;17.40;73.70
49821;DHT22;36893;52.520;13.450;2022-12-18T05:14:09;17.50;73.50
49821;DHT22;36893;52.520;13.450;2022-12-18T05:24:09;17.40;73.50
49821;DHT22;36893;52.520;13.450;2022-12-18T05:34:10;17.40;73.50
49821;DHT22;36893;52.520;13.450;2022-12-18T05:44:11;17.30;73.40
49821;DHT22;36893;52.520;13.450;2022-12-18T05:54:11;17.30;73.40
49821;DHT22;36893;52.520;13.450;2022-12-18T06:04:12;17.20;73.50
49821;DHT22;36893;52.520;13.450;2022-12-18T06:14:13;17.20;73.40
49821;DHT22;36893;52.520;13.450;2022-12-18T06:24:13;17.30;73.40
49821;DHT22;36893;52.520;13.450;2022-12-18T06:34:14;17.30;73.30
49821;DHT22;36893;52.520;13.450;2022-12-18T06:44:15;17.30;73.40
49821;DHT22;36893;52.520;13.450;2022-12-18T06:54:16;17.40;73.60
49821;DHT22;36893;52.520;13.450;2022-12-18T07:04:18;17.40;73.70
49821;DHT22;36893;52.520;13.450;2022-12-18T07:14:18;17.50;73.80
49821;DHT22;36893;52.520;13.450;2022-12-18T07:24:19;17.50;73.90
49821;DHT22;36893;52.520;13.450;2022-12-18T07:34:20;17.50;74.00
49821;DHT22;36893;52.520;13.450;2022-12-18T07:44:20;17.50;74.10
49821;DHT22;36893;52.520;13.450;2022-12-18T07:54:21;17.50;74.30
49821;DHT22;36893;52.520;13.450;2022-12-18T08:04:23;17.50;74.40
49821;DHT22;36893;52.520;13.450;2022-12-18T08:14:24;17.60;74.60
49821;DHT22;36893;52.520;13.450;2022-12-18T08:24:24;17.60;74.60
49821;DHT22;36893;52.520;13.450;2022-12-18T08:34:26;17.60;74.70
49821;DHT22;36893;52.520;13.450;2022-12-18T08:44:26;17.70;74.80
49821;DHT22;36893;52.520;13.450;2022-12-18T08:54:39;17.60;74.80
49821;DHT22;36893;52.520;13.450;2022-12-18T09:04:40;17.70;74.90
49821;DHT22;36893;52.520;13.450;2022-12-18T09:14:40;17.70;74.90
49821;DHT22;36893;52.520;13.450;2022-12-18T09:24:41;17.70;74.80
49821;DHT22;36893;52.520;13.450;2022-12-18T09:34:42;17.70;74.80
49821;DHT22;36893;52.520;13.450;2022-12-18T09:44:45;17.70;74.80
49821;DHT22;36893;52.520;13.450;2022-12-18T09:55:05;17.70;74.90
49821;DHT22;36893;52.520;13.450;2022-12-18T10:05:14;17.80;75.30
49821;DHT22;36893;52.520;13.450;2022-12-18T10:15:37;17.80;75.60
49821;DHT22;36893;52.520;13.450;2022-12-18T10:26:03;17.90;76.00
49821;DHT22;36893;52.520;13.450;2022-12-18T10:36:04;17.90;76.20
49821;DHT22;36893;52.520;13.450;2022-12-18T10:56:10;18.00;76.40
49821;DHT22;36893;52.520;13.450;2022-12-18T11:16:19;18.30;76.00
49821;DHT22;36893;52.520;13.450;2022-12-18T11:26:20;18.50;75.80
49821;DHT22;36893;52.520;13.450;2022-12-18T11:36:22;18.60;75.70
49821;DHT22;36893;52.520;13.450;2022-12-18T11:46:30;18.60;75.60
49821;DHT22;36893;52.520;13.450;2022-12-18T11:56:36;18.70;75.60
49821;DHT22;36893;52.520;13.450;2022-12-18T12:07:10;18.80;75.50
49821;DHT22;36893;52.520;13.450;2022-12-18T12:17:41;18.90;75.50
49821;DHT22;36893;52.520;13.450;2022-12-18T12:28:00;18.90;75.50
49821;DHT22;36893;52.520;13.450;2022-12-18T12:38:37;19.00;75.50
49821;DHT22;36893;52.520;13.450;2022-12-18T12:48:58;19.10;75.70
49821;DHT22;36893;52.520;13.450;2022-12-18T13:09:17;19.20;76.40
49821;DHT22;36893;52.520;13.450;2022-12-18T13:19:22;19.20;76.50
49821;DHT22;36893;52.520;13.450;2022-12-18T13:29:43;19.20;76.90
49821;DHT22;36893;52.520;13.450;2022-12-18T13:39:45;19.20;77.40
49821;DHT22;36893;52.520;13.450;2022-12-18T13:49:46;19.40;77.30
49821;DHT22;36893;52.520;13.450;2022-12-18T13:59:47;19.60;78.60
49821;DHT22;36893;52.520;13.450;2022-12-18T14:09:55;19.70;78.30
49821;DHT22;36893;52.520;13.450;2022-12-18T14:19:57;19.90;79.00
49821;DHT22;36893;52.520;13.450;2022-12-18T14:29:58;19.90;79.50
49821;DHT22;36893;52.520;13.450;2022-12-18T14:40:00;19.90;80.50
49821;DHT22;36893;52.520;13.450;2022-12-18T14:50:13;19.90;81.00
49821;DHT22;36893;52.520;13.450;2022-12-18T15:00:24;19.80;81.10
49821;DHT22;36893;52.520;13.450;2022-12-18T15:20:39;20.00;81.10
49821;DHT22;36893;52.520;13.450;2022-12-18T15:31:02;19.90;81.30
49821;DHT22;36893;52.520;13.450;2022-12-18T15:41:04;19.80;81.50
49821;DHT22;36893;52.520;13.450;2022-12-18T15:51:07;19.80;81.40
49821;DHT22;36893;52.520;13.450;2022-12-18T16:01:21;19.80;81.50
49821;DHT22;36893;52.520;13.450;2022-12-18T16:11:26;19.70;81.60
49821;DHT22;36893;52.520;13.450;2022-12-18T16:21:40;19.70;81.60
49821;DHT22;36893;52.520;13.450;2022-12-18T16:31:41;19.70;81.60
49821;DHT22;36893;52.520;13.450;2022-12-18T16:41:42;19.60;81.60
49821;DHT22;36893;52.520;13.450;2022-12-18T16:51:44;19.50;81.60
49821;DHT22;36893;52.520;13.450;2022-12-18T17:01:46;19.60;81.60
49821;DHT22;36893;52.520;13.450;2022-12-18T17:11:46;19.50;81.60
49821;DHT22;36893;52.520;13.450;2022-12-18T17:21:48;19.10;80.00
49821;DHT22;36893;52.520;13.450;2022-12-18T17:31:49;19.10;80.10
49821;DHT22;36893;52.520;13.450;2022-12-18T17:41:50;19.20;80.10
49821;DHT22;36893;52.520;13.450;2022-12-18T17:51:50;19.30;79.90
49821;DHT22;36893;52.520;13.450;2022-12-18T18:01:51;19.40;79.70
49821;DHT22;36893;52.520;13.450;2022-12-18T18:11:52;19.50;79.50
49821;DHT22;36893;52.520;13.450;2022-12-18T18:22:11;19.60;79.30
49821;DHT22;36893;52.520;13.450;2022-12-18T18:32:12;19.70;79.20
49821;DHT22;36893;52.520;13.450;2022-12-18T18:42:12;19.70;79.00
49821;DHT22;36893;52.520;13.450;2022-12-18T18:52:13;19.70;78.80
49821;DHT22;36893;52.520;13.450;2022-12-18T19:02:15;19.80;78.60
49821;DHT22;36893;52.520;13.450;2022-12-18T19:12:16;19.80;78.40
49821;DHT22;36893;52.520;13.450;2022-12-18T19:22:35;19.80;78.20
49821;DHT22;36893;52.520;13.450;2022-12-18T19:32:36;19.80;78.00
49821;DHT22;36893;52.520;13.450;2022-12-18T19:42:38;19.80;78.00
49821;DHT22;36893;52.520;13.450;2022-12-18T19:52:39;19.60;78.00
49821;DHT22;36893;52.520;13.450;2022-12-18T20:02:39;19.40;77.90
49821;DHT22;36893;52.520;13.450;2022-12-18T20:12:40;19.30;77.90
49821;DHT22;36893;52.520;13.450;2022-12-18T20:22:41;19.20;77.80
49821;DHT22;36893;52.520;13.450;2022-12-18T20:32:41;19.20;77.70
49821;DHT22;36893;52.520;13.450;2022-12-18T20:42:42;19.10;77.60
49821;DHT22;36893;52.520;13.450;2022-12-18T20:52:42;19.00;77.50
49821;DHT22;36893;52.520;13.450;2022-12-18T21:02:43;19.00;77.30
49821;DHT22;36893;52.520;13.450;2022-12-18T21:12:44;18.90;77.20
49821;DHT22;36893;52.520;13.450;2022-12-18T21:22:46;18.80;77.20
49821;DHT22;36893;52.520;13.450;2022-12-18T21:32:48;18.70;77.00
49821;DHT22;36893;52.520;13.450;2022-12-18T21:42:49;18.70;77.00
49821;DHT22;36893;52.520;13.450;2022-12-18T21:53:08;18.60;76.90
49821;DHT22;36893;52.520;13.450;2022-12-18T22:03:08;18.50;76.80
49821;DHT22;36893;52.520;13.450;2022-12-18T22:13:09;18.50;76.80
49821;DHT22;36893;52.520;13.450;2022-12-18T22:23:10;18.40;76.80
49821;DHT22;36893;52.520;13.450;2022-12-18T22:33:12;18.30;76.60
49821;DHT22;36893;52.520;13.450;2022-12-18T22:43:12;18.30;76.70
49821;DHT22;36893;52.520;13.450;2022-12-18T22:53:13;18.20;76.50
49821;DHT22;36893;52.520;13.450;2022-12-18T23:03:14;18.20;76.50
49821;DHT22;36893;52.520;13.450;2022-12-18T23:13:14;18.10;76.40
49821;DHT22;36893;52.520;13.450;2022-12-18T23:23:16;18.10;76.30
49821;DHT22;36893;52.520;13.450;2022-12-18T23:33:17;18.00;76.30
49821;DHT22;36893;52.520;13.450;2022-12-18T23:43:18;18.00;76.20
49821;DHT22;36893;52.520;13.450;2022-12-18T23:53:18;18.00;76.20
